createdAt,value
2022-11-05T00:02:21.481Z,13.57
2022-11-05T00:05:06.813Z,13.80
2022-11-05T00:08:00.286Z,14.98
2022-11-05T00:10:30.251Z,15.02
2022-11-05T00:13:18.056Z,14.02
2022-11-05T00:16:03.860Z,16.27
2022-11-05T00:18:31.147Z,15.77
2022-11-05T00:20:57.940Z,14.82
2022-11-05T00:23:42.975Z,15.57
2022-11-05T00:26:11.752Z,14.18
2022-11-05T00:28:40.850Z,14.95
2022-11-05T00:31:10.837Z,14.40
2022-11-05T00:33:42.418Z,15.27
2022-11-05T00:36:10.597Z,13.60
2022-11-05T00:38:37.341Z,14.90
2022-11-05T00:41:04.792Z,15.55
2022-11-05T00:43:49.701Z,15.48
2022-11-05T00:46:16.369Z,15.55
2022-11-05T00:49:01.634Z,14.68
2022-11-05T00:51:28.236Z,14.25
2022-11-05T00:53:54.820Z,13.80
2022-11-05T00:56:21.416Z,15.25
2022-11-05T00:58:48.954Z,15.13
2022-11-05T01:01:15.660Z,13.30
2022-11-05T01:03:45.126Z,12.45
2022-11-05T01:06:17.057Z,14.20
2022-11-05T01:08:46.149Z,15.80
2022-11-05T01:11:33.858Z,13.80
2022-11-05T01:14:05.621Z,15.50
2022-11-05T01:16:32.673Z,17.30
2022-11-05T01:18:59.463Z,16.08
2022-11-05T01:21:26.079Z,14.02
2022-11-05T01:23:53.273Z,15.15
2022-11-05T01:26:19.932Z,16.73
2022-11-05T01:29:02.203Z,15.48
2022-11-05T01:31:29.218Z,14.10
2022-11-05T01:33:55.766Z,14.70
2022-11-05T01:36:22.359Z,14.30
2022-11-05T01:38:49.201Z,14.07
2022-11-05T01:41:15.754Z,14.57
2022-11-05T01:43:52.307Z,13.52
2022-11-05T01:46:27.905Z,13.30
2022-11-05T01:49:02.712Z,14.82
2022-11-05T01:51:30.077Z,15.10
2022-11-05T01:54:06.687Z,14.45
2022-11-05T01:56:41.102Z,15.75
2022-11-05T01:59:13.838Z,17.40
2022-11-05T02:01:40.655Z,17.95
2022-11-05T02:04:13.673Z,18.02
2022-11-05T02:06:46.661Z,17.75
2022-11-05T02:09:20.694Z,18.60
2022-11-05T02:11:48.285Z,19.13
2022-11-05T02:14:14.889Z,19.20
2022-11-05T02:17:01.978Z,18.00
2022-11-05T02:19:47.284Z,20.50
2022-11-05T02:22:19.956Z,19.52
2022-11-05T02:25:28.825Z,23.55
2022-11-05T02:28:13.558Z,24.33
2022-11-05T02:31:03.496Z,25.30
2022-11-05T02:33:59.090Z,26.02
2022-11-05T02:36:34.418Z,26.95
2022-11-05T02:39:09.967Z,28.48
2022-11-05T02:42:04.912Z,31.95
2022-11-05T02:44:47.115Z,31.33
2022-11-05T02:47:42.335Z,32.17
2022-11-05T02:50:48.137Z,32.83
2022-11-05T02:53:16.759Z,33.40
2022-11-05T02:55:51.325Z,36.30
2022-11-05T02:58:17.976Z,37.45
2022-11-05T03:00:53.986Z,36.20
2022-11-05T03:03:29.500Z,35.70
2022-11-05T03:06:09.846Z,40.45
2022-11-05T03:08:47.162Z,38.45
2022-11-05T03:11:26.103Z,43.10
2022-11-05T03:14:02.722Z,39.55
2022-11-05T03:16:49.786Z,36.95
2022-11-05T03:19:28.352Z,36.55
2022-11-05T03:22:01.140Z,39.20
2022-11-05T03:24:34.325Z,37.10
2022-11-05T03:27:06.657Z,33.00
2022-11-05T03:29:38.885Z,32.35
2022-11-05T03:32:08.503Z,30.65
2022-11-05T03:34:51.693Z,29.85
2022-11-05T03:37:23.544Z,26.73
2022-11-05T03:42:26.463Z,27.10
2022-11-05T03:44:57.551Z,27.60
2022-11-05T03:47:29.929Z,27.73
2022-11-05T03:50:07.691Z,26.15
2022-11-05T03:52:43.641Z,24.17
2022-11-05T03:55:10.692Z,24.67
2022-11-05T03:57:41.402Z,23.42
2022-11-05T04:00:09.933Z,22.63
2022-11-05T04:02:37.653Z,24.40
2022-11-05T04:05:05.358Z,23.45
2022-11-05T04:07:50.291Z,23.35
2022-11-05T04:10:35.592Z,22.33
2022-11-05T04:13:20.799Z,19.83
2022-11-05T04:16:06.141Z,19.67
2022-11-05T04:18:32.841Z,19.42
2022-11-05T04:21:18.462Z,20.45
2022-11-05T04:24:04.951Z,17.95
2022-11-05T04:26:31.527Z,18.88
2022-11-05T04:29:16.549Z,17.48
2022-11-05T04:31:43.087Z,18.35
2022-11-05T04:34:09.695Z,17.67
2022-11-05T04:36:36.311Z,15.57
2022-11-05T04:39:02.998Z,16.02
2022-11-05T04:41:29.741Z,18.50
2022-11-05T04:43:56.332Z,17.23
2022-11-05T04:46:22.849Z,15.88
2022-11-05T04:48:49.411Z,16.77
2022-11-05T04:51:16.062Z,16.75
2022-11-05T04:53:42.645Z,17.23
2022-11-05T04:56:19.939Z,17.23
2022-11-05T04:58:46.795Z,15.63
2022-11-05T05:01:16.011Z,17.08
2022-11-05T05:03:43.033Z,17.00
2022-11-05T05:06:10.350Z,16.30
2022-11-05T05:08:36.965Z,17.73
2022-11-05T05:11:07.758Z,19.27
2022-11-05T05:13:34.773Z,18.55
2022-11-05T05:16:25.239Z,17.45
2022-11-05T05:18:52.706Z,17.95
2022-11-05T05:21:39.453Z,17.35
2022-11-05T05:24:10.643Z,19.15
2022-11-05T05:26:38.827Z,19.83
2022-11-05T05:29:06.949Z,17.88
2022-11-05T05:31:34.283Z,19.42
2022-11-05T05:34:01.045Z,20.27
2022-11-05T05:36:28.080Z,21.02
2022-11-05T05:38:54.693Z,16.88
2022-11-05T05:41:21.624Z,17.52
2022-11-05T05:43:48.266Z,18.05
2022-11-05T05:46:16.610Z,18.63
2022-11-05T05:48:43.936Z,17.45
2022-11-05T05:51:12.124Z,16.20
2022-11-05T05:53:38.933Z,18.35
2022-11-05T05:56:06.297Z,18.88
2022-11-05T05:58:35.478Z,22.52
2022-11-05T06:01:07.766Z,27.52
2022-11-05T06:03:34.930Z,25.17
2022-11-05T06:06:09.257Z,27.85
2022-11-05T06:08:36.901Z,28.55
2022-11-05T06:11:04.272Z,25.05
2022-11-05T06:13:31.816Z,24.80
2022-11-05T06:16:02.865Z,25.23
2022-11-05T06:18:31.038Z,26.33
2022-11-05T06:21:02.498Z,21.55
2022-11-05T06:23:32.754Z,23.95
2022-11-05T06:26:01.353Z,26.17
2022-11-05T06:28:29.547Z,26.58
2022-11-05T06:30:57.435Z,24.42
2022-11-05T06:33:24.252Z,20.85
2022-11-05T06:35:50.992Z,29.88
2022-11-05T06:38:17.548Z,26.73
2022-11-05T06:40:44.299Z,24.98
2022-11-05T06:43:11.091Z,30.77
2022-11-05T06:45:37.831Z,31.67
2022-11-05T06:48:04.690Z,26.10
2022-11-05T06:50:31.365Z,28.67
2022-11-05T06:53:00.077Z,27.95
2022-11-05T06:55:28.999Z,30.02
2022-11-05T06:57:56.373Z,26.17
2022-11-05T07:00:23.587Z,26.90
2022-11-05T07:02:50.362Z,28.38
2022-11-05T07:05:17.199Z,31.92
2022-11-05T07:07:45.531Z,30.63
2022-11-05T07:10:15.442Z,28.33
2022-11-05T07:12:42.112Z,26.02
2022-11-05T07:15:10.197Z,30.83
2022-11-05T07:17:36.770Z,31.70
2022-11-05T07:20:04.650Z,33.30
2022-11-05T07:22:31.254Z,33.97
2022-11-05T07:24:57.987Z,33.60
2022-11-05T07:27:24.547Z,31.05
2022-11-05T07:29:51.140Z,34.67
2022-11-05T07:32:18.536Z,35.15
2022-11-05T07:34:45.133Z,35.78
2022-11-05T07:37:11.740Z,35.53
2022-11-05T07:39:38.593Z,35.63
2022-11-05T07:42:05.182Z,30.70
2022-11-05T07:44:31.840Z,28.95
2022-11-05T07:46:58.413Z,31.83
2022-11-05T07:49:25.079Z,30.67
2022-11-05T07:51:51.678Z,30.83
2022-11-05T07:54:18.265Z,27.88
2022-11-05T07:56:47.138Z,31.02
2022-11-05T07:59:13.815Z,31.33
2022-11-05T08:01:40.482Z,29.90
2022-11-05T08:04:07.306Z,31.38
2022-11-05T08:06:34.306Z,27.58
2022-11-05T08:09:01.105Z,32.17
2022-11-05T08:11:27.706Z,29.20
2022-11-05T08:13:54.295Z,28.52
2022-11-05T08:16:20.889Z,31.13
2022-11-05T08:18:48.311Z,34.50
2022-11-05T08:21:14.984Z,31.45
2022-11-05T08:23:42.926Z,32.95
2022-11-05T08:26:10.261Z,34.67
2022-11-05T08:28:36.849Z,33.65
2022-11-05T08:31:03.592Z,34.92
2022-11-05T08:33:31.567Z,37.25
2022-11-05T08:36:02.897Z,38.72
2022-11-05T08:38:29.909Z,39.60
2022-11-05T08:40:58.155Z,40.15
2022-11-05T08:43:25.049Z,38.97
2022-11-05T08:45:51.839Z,39.60
2022-11-05T08:48:19.666Z,38.60
2022-11-05T08:50:47.972Z,37.15
2022-11-05T08:53:15.568Z,40.42
2022-11-05T08:55:44.006Z,47.72
2022-11-05T08:58:12.808Z,42.30
2022-11-05T09:00:40.318Z,44.47
2022-11-05T09:03:08.713Z,41.17
2022-11-05T09:05:39.143Z,44.17
2022-11-05T09:08:07.299Z,42.28
2022-11-05T09:10:34.470Z,46.92
2022-11-05T09:13:01.439Z,47.03
2022-11-05T09:15:28.533Z,44.35
2022-11-05T09:17:55.520Z,44.10
2022-11-05T09:20:22.714Z,47.80
2022-11-05T09:22:49.877Z,44.92
2022-11-05T09:25:17.919Z,48.00
2022-11-05T09:27:44.690Z,50.28
2022-11-05T09:30:12.940Z,46.83
2022-11-05T09:32:51.926Z,44.08
2022-11-05T09:35:18.502Z,44.20
2022-11-05T09:37:45.104Z,43.08
2022-11-05T09:40:17.575Z,48.58
2022-11-05T09:42:50.291Z,45.85
2022-11-05T09:45:20.413Z,46.65
2022-11-05T09:47:53.609Z,47.85
2022-11-05T09:50:25.737Z,44.92
2022-11-05T09:52:52.311Z,45.67
2022-11-05T09:55:29.452Z,45.63
2022-11-05T09:58:01.715Z,48.10
2022-11-05T10:00:30.088Z,49.70
2022-11-05T10:03:15.830Z,47.28
2022-11-05T10:05:43.462Z,51.17
2022-11-05T10:08:32.915Z,49.28
2022-11-05T10:11:07.315Z,48.47
2022-11-05T10:13:40.118Z,47.15
2022-11-05T10:16:21.775Z,45.58
2022-11-05T10:18:54.235Z,48.78
2022-11-05T10:21:37.741Z,49.63
2022-11-05T10:24:16.526Z,45.97
2022-11-05T10:26:46.534Z,47.33
2022-11-05T10:29:29.437Z,49.53
2022-11-05T10:32:01.439Z,46.95
2022-11-05T10:34:32.548Z,48.08
2022-11-05T10:36:59.299Z,49.38
2022-11-05T10:39:27.931Z,52.95
2022-11-05T10:42:19.216Z,54.80
2022-11-05T10:45:16.432Z,57.47
2022-11-05T10:48:14.056Z,55.75
2022-11-05T10:50:41.381Z,56.42
2022-11-05T10:53:15.613Z,57.53
2022-11-05T10:55:46.214Z,53.90
2022-11-05T10:58:15.846Z,51.70
2022-11-05T11:00:44.591Z,46.20
2022-11-05T11:03:36.167Z,34.00
2022-11-05T11:06:07.695Z,27.80
2022-11-05T11:08:36.663Z,27.05
2022-11-05T11:11:07.776Z,25.73
2022-11-05T11:14:12.591Z,24.95
2022-11-05T11:16:44.611Z,24.63
2022-11-05T11:19:29.531Z,23.90
2022-11-05T11:22:05.152Z,22.05
2022-11-05T11:24:38.961Z,21.70
2022-11-05T11:27:13.618Z,23.17
2022-11-05T11:29:48.941Z,22.13
2022-11-05T11:32:19.555Z,20.80
2022-11-05T11:34:51.731Z,21.40
2022-11-05T11:37:37.378Z,21.13
2022-11-05T11:40:29.533Z,20.15
2022-11-05T11:45:36.587Z,18.85
2022-11-05T11:48:06.557Z,19.73
2022-11-05T11:50:38.924Z,19.88
2022-11-05T11:53:20.539Z,21.67
2022-11-05T11:56:01.542Z,19.65
2022-11-05T11:58:47.352Z,19.52
2022-11-05T12:01:17.068Z,20.45
2022-11-05T12:04:08.512Z,22.38
2022-11-05T12:06:42.867Z,19.03
2022-11-05T12:09:23.283Z,20.70
2022-11-05T12:12:05.501Z,23.13
2022-11-05T12:14:43.691Z,22.08
2022-11-05T12:17:50.539Z,19.60
2022-11-05T12:20:41.752Z,16.63
2022-11-05T12:23:30.164Z,16.17
2022-11-05T12:26:14.998Z,25.20
2022-11-05T12:29:17.777Z,17.00
2022-11-05T12:31:50.293Z,15.27
2022-11-05T12:34:41.607Z,15.00
2022-11-05T12:37:37.417Z,13.33
2022-11-05T12:40:41.378Z,14.55
2022-11-05T12:43:22.842Z,22.42
2022-11-05T12:46:01.638Z,22.55
2022-11-05T12:49:03.556Z,23.33
2022-11-05T12:52:01.434Z,23.60
2022-11-05T12:54:44.916Z,23.10
2022-11-05T12:57:13.677Z,21.15
2022-11-05T12:59:52.654Z,19.05
2022-11-05T13:02:37.725Z,19.08
2022-11-05T13:05:14.179Z,18.17
2022-11-05T13:07:52.615Z,18.38
2022-11-05T13:10:34.542Z,18.55
2022-11-05T13:13:26.498Z,19.20
2022-11-05T13:15:58.674Z,21.08
2022-11-05T13:18:47.210Z,21.25
2022-11-05T13:21:15.896Z,17.88
2022-11-05T13:24:11.946Z,17.25
2022-11-05T13:27:10.670Z,16.38
2022-11-05T13:29:53.634Z,16.80
2022-11-05T13:32:32.029Z,17.35
2022-11-05T13:35:01.193Z,14.80
2022-11-05T13:37:53.208Z,15.35
2022-11-05T13:40:26.213Z,13.23
2022-11-05T13:43:02.612Z,14.65
2022-11-05T13:45:59.101Z,13.63
2022-11-05T13:48:38.176Z,12.55
2022-11-05T13:51:04.836Z,13.88
2022-11-05T13:54:19.115Z,13.35
2022-11-05T13:57:01.098Z,13.27
2022-11-05T14:02:47.725Z,18.85
2022-11-05T14:05:44.413Z,10.90
2022-11-05T14:08:17.587Z,10.98
2022-11-05T14:10:56.777Z,10.07
2022-11-05T14:13:25.135Z,9.32
2022-11-05T14:15:58.673Z,9.50
2022-11-05T14:18:25.337Z,10.50
2022-11-05T14:21:00.842Z,9.65
2022-11-05T14:23:38.597Z,10.07
2022-11-05T14:26:21.137Z,11.50
2022-11-05T14:28:58.174Z,12.18
2022-11-05T14:31:54.358Z,11.32
2022-11-05T14:34:39.865Z,11.68
2022-11-05T14:37:12.516Z,12.40
2022-11-05T14:39:40.409Z,13.82
2022-11-05T14:42:28.755Z,14.32
2022-11-05T14:45:07.474Z,14.88
2022-11-05T14:47:42.175Z,14.65
2022-11-05T14:50:12.152Z,15.02
2022-11-05T14:52:40.743Z,15.93
2022-11-05T14:55:27.025Z,17.70
2022-11-05T14:57:53.619Z,18.60
2022-11-05T15:00:44.616Z,19.55
2022-11-05T15:03:49.803Z,21.65
2022-11-05T15:06:32.122Z,21.38
2022-11-05T15:09:25.893Z,22.48
2022-11-05T15:12:03.919Z,23.10
2022-11-05T15:14:34.913Z,23.08
2022-11-05T15:17:15.555Z,24.57
2022-11-05T15:19:43.218Z,26.92
2022-11-05T15:22:26.676Z,27.05
2022-11-05T15:24:53.419Z,26.48
2022-11-05T15:27:56.279Z,29.20
2022-11-05T15:30:24.338Z,28.42
2022-11-05T15:32:51.844Z,30.85
2022-11-05T15:35:23.695Z,31.83
2022-11-05T15:40:26.393Z,32.75
2022-11-05T15:43:22.316Z,33.63
2022-11-05T15:46:22.034Z,34.05
2022-11-05T15:48:52.815Z,32.40
2022-11-05T15:51:24.491Z,35.92
2022-11-05T15:56:49.214Z,36.10
2022-11-05T15:59:21.000Z,39.38
2022-11-05T16:04:24.941Z,39.20
2022-11-05T16:06:55.219Z,41.88
2022-11-05T16:09:32.049Z,42.60
2022-11-05T16:12:22.122Z,42.58
2022-11-05T16:15:10.436Z,43.17
2022-11-05T16:17:39.910Z,46.33
2022-11-05T16:20:23.844Z,47.65
2022-11-05T16:22:54.015Z,46.88
2022-11-05T16:25:32.082Z,48.25
2022-11-05T16:27:59.933Z,48.72
2022-11-05T16:30:27.083Z,49.25
2022-11-05T16:32:54.521Z,47.08
2022-11-05T16:35:24.070Z,51.65
2022-11-05T16:37:55.159Z,48.50
2022-11-05T16:40:24.811Z,46.50
2022-11-05T16:42:53.881Z,46.00
2022-11-05T16:45:23.623Z,47.22
2022-11-05T16:47:51.019Z,47.88
2022-11-05T16:50:24.635Z,46.78
2022-11-05T16:52:51.718Z,46.80
2022-11-05T16:55:19.528Z,48.13
2022-11-05T16:57:51.040Z,46.95
2022-11-05T17:00:20.312Z,46.92
2022-11-05T17:02:47.447Z,48.72
2022-11-05T17:05:24.248Z,48.85
2022-11-05T17:07:53.885Z,49.15
2022-11-05T17:10:22.559Z,46.10
2022-11-05T17:12:50.058Z,51.75
2022-11-05T17:15:36.970Z,49.47
2022-11-05T17:18:05.619Z,45.50
2022-11-05T17:20:41.019Z,49.15
2022-11-05T17:23:13.632Z,48.10
2022-11-05T17:25:42.425Z,50.42
2022-11-05T17:28:10.663Z,48.80
2022-11-05T17:30:41.151Z,49.30
2022-11-05T17:33:09.634Z,47.30
2022-11-05T17:35:39.676Z,49.20
2022-11-05T17:38:08.753Z,50.60
2022-11-05T17:40:36.566Z,49.40
2022-11-05T17:43:04.225Z,44.17
2022-11-05T17:45:31.032Z,48.80
2022-11-05T17:47:57.877Z,48.90
2022-11-05T17:50:24.817Z,48.25
2022-11-05T17:52:52.715Z,48.38
2022-11-05T17:55:19.520Z,49.65
2022-11-05T17:57:53.026Z,50.75
2022-11-05T18:00:22.528Z,47.03
2022-11-05T18:02:53.175Z,47.70
2022-11-05T18:05:21.901Z,52.90
2022-11-05T18:07:49.444Z,51.78
2022-11-05T18:10:16.810Z,51.70
2022-11-05T18:12:44.082Z,49.63
2022-11-05T18:15:11.790Z,47.70
2022-11-05T18:17:42.320Z,52.08
2022-11-05T18:20:17.360Z,49.63
2022-11-05T18:22:45.785Z,52.08
2022-11-05T18:25:14.174Z,48.88
2022-11-05T18:27:41.388Z,47.33
2022-11-05T18:30:09.784Z,45.30
2022-11-05T18:32:36.864Z,44.58
2022-11-05T18:35:03.926Z,44.78
2022-11-05T18:37:30.554Z,45.28
2022-11-05T18:39:57.143Z,44.42
2022-11-05T18:42:25.371Z,45.17
2022-11-05T18:44:52.010Z,44.65
2022-11-05T18:47:18.742Z,45.22
2022-11-05T18:49:45.397Z,45.33
2022-11-05T18:52:12.186Z,43.63
2022-11-05T18:54:39.051Z,45.38
2022-11-05T18:57:05.735Z,49.28
2022-11-05T18:59:38.187Z,45.45
2022-11-05T19:02:07.644Z,45.95
2022-11-05T19:04:38.498Z,43.65
2022-11-05T19:07:06.237Z,47.33
2022-11-05T19:09:34.600Z,49.88
2022-11-05T19:12:01.847Z,48.17
2022-11-05T19:14:30.072Z,48.63
2022-11-05T19:16:58.137Z,48.28
2022-11-05T19:19:24.985Z,46.53
2022-11-05T19:21:52.337Z,50.97
2022-11-05T19:24:19.440Z,53.90
2022-11-05T19:26:46.848Z,52.97
2022-11-05T19:29:13.914Z,55.15
2022-11-05T19:31:40.791Z,54.17
2022-11-05T19:34:08.199Z,50.58
2022-11-05T19:36:35.182Z,51.33
2022-11-05T19:39:09.071Z,46.58
2022-11-05T19:41:36.076Z,46.42
2022-11-05T19:44:03.464Z,48.05
2022-11-05T19:46:31.612Z,48.53
2022-11-05T19:48:59.987Z,50.65
2022-11-05T19:51:29.222Z,47.17
2022-11-05T19:53:56.314Z,50.20
2022-11-05T19:56:28.686Z,48.35
2022-11-05T19:58:56.145Z,47.58
2022-11-05T20:01:24.430Z,46.80
2022-11-05T20:03:51.752Z,46.55
2022-11-05T20:06:21.512Z,47.25
2022-11-05T20:09:15.333Z,48.33
2022-11-05T20:11:37.823Z,47.72
2022-11-05T20:14:05.523Z,45.00
2022-11-05T20:16:40.524Z,43.70
2022-11-05T20:19:11.098Z,49.75
2022-11-05T20:21:37.842Z,44.67
2022-11-05T20:24:04.731Z,45.90
2022-11-05T20:26:31.802Z,46.53
2022-11-05T20:28:58.544Z,44.13
2022-11-05T20:31:25.481Z,44.90
2022-11-05T20:33:52.424Z,42.00
2022-11-05T20:36:23.115Z,43.03
2022-11-05T20:38:56.499Z,45.22
2022-11-05T20:41:23.692Z,46.88
2022-11-05T20:43:50.966Z,44.53
2022-11-05T20:46:20.151Z,47.65
2022-11-05T20:48:47.362Z,45.05
2022-11-05T20:51:20.096Z,46.15
2022-11-05T20:53:47.890Z,45.85
2022-11-05T20:56:29.741Z,47.92
2022-11-05T20:58:58.569Z,45.80
2022-11-05T21:01:26.824Z,48.30
2022-11-05T21:03:53.614Z,48.03
2022-11-05T21:06:20.251Z,48.35
2022-11-05T21:08:48.464Z,48.90
2022-11-05T21:11:15.193Z,47.35
2022-11-05T21:13:41.939Z,48.13
2022-11-05T21:16:14.034Z,47.13
2022-11-05T21:18:43.982Z,49.35
2022-11-05T21:21:19.892Z,47.97
2022-11-05T21:23:47.149Z,49.00
2022-11-05T21:26:18.101Z,50.10
2022-11-05T21:28:44.970Z,36.17
2022-11-05T21:31:12.163Z,47.65
2022-11-05T21:33:39.274Z,49.45
2022-11-05T21:36:08.611Z,47.33
2022-11-05T21:38:35.515Z,47.92
2022-11-05T21:41:03.396Z,45.72
2022-11-05T21:43:30.477Z,49.20
2022-11-05T21:46:01.207Z,48.80
2022-11-05T21:48:27.866Z,47.65
2022-11-05T21:51:13.077Z,49.13
2022-11-05T21:53:58.662Z,53.40
2022-11-05T21:56:49.013Z,49.97
2022-11-05T21:59:37.077Z,51.72
2022-11-05T22:02:04.909Z,54.63
2022-11-05T22:04:34.125Z,52.55
2022-11-05T22:07:01.371Z,51.72
2022-11-05T22:09:28.948Z,51.55
2022-11-05T22:11:56.126Z,52.50
2022-11-05T22:14:23.647Z,54.92
2022-11-05T22:16:50.512Z,53.50
2022-11-05T22:19:17.959Z,52.55
2022-11-05T22:21:44.785Z,51.50
2022-11-05T22:24:11.710Z,52.95
2022-11-05T22:26:38.944Z,50.67
2022-11-05T22:29:06.292Z,52.53
2022-11-05T22:31:36.173Z,53.22
2022-11-05T22:34:04.629Z,54.83
2022-11-05T22:36:32.214Z,53.50
2022-11-05T22:38:59.158Z,54.35
2022-11-05T22:41:25.829Z,57.05
2022-11-05T22:43:52.620Z,53.15
2022-11-05T22:46:22.727Z,62.55
2022-11-05T22:48:50.190Z,56.53
2022-11-05T22:51:26.005Z,50.88
2022-11-05T22:53:54.885Z,52.85
2022-11-05T22:56:24.354Z,53.80
2022-11-05T22:58:51.758Z,57.70
2022-11-05T23:01:19.788Z,54.35
2022-11-05T23:03:50.934Z,53.47
2022-11-05T23:06:47.768Z,49.00
2022-11-05T23:09:36.374Z,48.20
2022-11-05T23:12:09.713Z,50.72
2022-11-05T23:14:36.813Z,49.30
2022-11-05T23:17:22.876Z,53.35
2022-11-05T23:20:08.272Z,51.92
2022-11-05T23:22:53.440Z,53.00
2022-11-05T23:25:23.963Z,50.80
2022-11-05T23:27:57.370Z,52.58
2022-11-05T23:30:26.144Z,50.05
2022-11-05T23:32:53.970Z,54.05
2022-11-05T23:35:39.187Z,51.55
2022-11-05T23:38:24.439Z,47.97
2022-11-05T23:41:09.834Z,48.75
2022-11-05T23:43:55.226Z,50.38
2022-11-05T23:46:40.462Z,47.75
2022-11-05T23:49:07.229Z,48.00
2022-11-05T23:51:33.874Z,46.95
2022-11-05T23:54:00.496Z,43.88
2022-11-05T23:56:27.119Z,43.30
2022-11-05T23:58:53.719Z,41.40
